YBOO weather

Catholic Agricultural College Bindoon Airstrip
Western Australia, Australia

Public forecast

Using degrees Celsius for public forecast. Weather courtesy of forecast.io.

Closest aviation weather report (METAR) to Catholic Agricultural College Bindoon Airstrip

Closest report is RAAF Base Pearce, 21.6 nm (39.9 km) SSW. Retrieved 2019/10/22 16:30 UTC (0 seconds ago):

YPEA 221630Z AUTO 35004KT 9999 // SCT019 15/13 Q1017

Closest aviation forecast (TAF) to Catholic Agricultural College Bindoon Airstrip

Forecast is more than 12 hours old.

Closest forecast is RAAF Base Pearce, 21.6 nm (39.9 km) SSW. Retrieved 2019-10-22 00:00 UTC (16 hours ago):

TAF YPEA 212218Z 2200/2218 18005KT CAVOK FM220500 24014KT CAVOK FM221100 23008KT 9999 SCT015